Portada
METAR-TAF:

METAR-TAF

Aeroports :

Kostanay, Kazakhstan

latitud: 53-12-23N, longitud: 063-33-03E, altitud: 182 m

Observació

L'informe es va fer fa 19 minuts, a les 07:00 UTC
Vent 10 kt del Est/Sud-Est, variant entre Est/Nord-Est i Sud-Est
Temperatura 19°C
Humitat 56%
Pressió 1029 hPa
Visibilitat 10 km o més
sense núvols per sota de 1500 mi sense presència de cumulonimbus.

METAR: UAUU 270700Z 11005MPS 070V130 CAVOK 19/10 Q1029 R15/CLRD70 NOSIG RMK QFE755/1007

Hora: 13:19 (07:19 UTC)

Pronòstic

L'informe es va fer fa 2 hores i 19 minuts, a les 05:00 UTC
Pronòstic vàlid del 27 a les 06 UTC al 27 a les 15 UTC
Vent 10 kt del Est amb ràfegues de 19 kt
Visibilitat 10 km o més
sense núvols per sota de 1500 mi sense presència de cumulonimbus.
Evolucionant progressivament
l' 27 a les 13 UTC al 27 a les 14 UTC
Vent 6 kt del Est/Sud-Est

TAF: UAUU 270500Z 2706/2715 10005G10MPS CAVOK BECMG 2713/2714 12003MPS

Observacions i pronòstics meteorològics de més de 4000 aeroports (METAR i TAF).

Les estacions disponibles són els punts grocs i vermells al mapa.

Posi el ratolí al punt desitjat per veure el nom de l'estació.

Feu clic per veure les observacions i els pronòstics meteorològics.

Per canviar el mapa: feu clic els botons verds amb una creu de color negre per apropar; al botó verd amb un guió per allunyar la imatge; o en les fletxes verdes per a mapes adjacents.


METAR-TAF: